• Join FlightAware (Why Join?)
  • Login
  • US Flag 
11:05PM EDT


 

Airport Tracker/Info


-or-


 

Live Flight TrackerFlight Track Log ✈ FFT917 ✈ 07-Sep-2013 ✈ KTTN - KMCO

Flight Track Log - Related Links

Times and Time Zones

All times are in EDT time to prevent confusion due to time zone crossing. See the FFT917 flight status page for this flight to view local times or setup timezone preferences in your user account.

Time Position Orientation Groundspeed Altitude Reporting Facility
EDT Latitude Longitude Course Direction KTS MPH feet Rate Location/Type
07:53AM 40.2770 -74.8170 270° West  Level FlightAware
07:54AM 40.2770 -74.8180 270° West 60 Level FlightAware
07:57AM 40.1500 -75.0632 270° West  Level FlightAware Approximate
07:58AM 40.0984 -75.1865 237° Southwest  Level FlightAware Approximate
07:59AM 40.0452 -75.3140 239° Southwest  Level FlightAware Approximate
08:00AM 39.9875 -75.4408 239° Southwest  Level FlightAware Approximate
08:01AM 39.9333 -75.5630 270° West  Level FlightAware Approximate
08:04AM 40.1300 -75.1233 237° Southwest  Level FlightAware Approximate
08:05AM 40.0667 -75.2575 270° West  Level FlightAware Approximate
08:06AM 40.0082 -75.3953 239° Southwest  Level FlightAware Approximate
08:10AM 40.1170 -75.1494 237° Southwest  Level FlightAware Approximate
08:11AM 40.0581 -75.2856 239° Southwest  Level FlightAware Approximate
08:11AM 40.2570 -74.8380 239° Southwest 135 155 1,600  Level FlightAware
08:11AM 40.2470 -74.8500 222° Southwest 164 189 2,000 1,500 Climbing FlightAware
08:12AM 40.2330 -74.8680 224° Southwest 191 220 2,700 1,620 Climbing FlightAware
08:12AM 40.2240 -74.8780 220° Southwest 206 237 3,000 1,620 Climbing FlightAware
08:12AM 40.2090 -74.9020 231° Southwest 237 273 3,700 1,860 Climbing FlightAware
08:13AM 40.1980 -74.9290 242° Southwest 268 308 4,400 2,460 Climbing FlightAware
08:13AM 40.1860 -74.9590 242° Southwest 281 323 5,300 2,880 Climbing FlightAware
08:13AM 40.1730 -74.9900 241° Southwest 280 322 6,300 2,160 Climbing FlightAware
08:14AM 40.1610 -75.0200 242° Southwest 282 325 6,800 660 Climbing FlightAware
08:14AM 40.1470 -75.0540 242° Southwest 284 327 6,800  Level FlightAware
08:14AM 40.1320 -75.0900 241° Southwest 285 328 6,800  Level FlightAware
08:15AM 40.1200 -75.1200 242° Southwest 286 329 6,800  Level FlightAware
08:15AM 40.1080 -75.1500 242° Southwest 285 328 6,800  Level FlightAware
08:15AM 40.0950 -75.1800 240° Southwest 285 328 6,800 420 Level FlightAware
08:16AM 40.0820 -75.2120 242° Southwest 285 328 7,100 1,860 Climbing FlightAware
08:16AM 40.0670 -75.2490 242° Southwest 295 339 8,200 2,820 Climbing FlightAware
08:16AM 40.0540 -75.2800 241° Southwest 291 335 9,200 2,400 Climbing FlightAware
08:17AM 40.0410 -75.3100 240° Southwest 289 333 9,800 900 Climbing FlightAware
08:17AM 40.0260 -75.3470 242° Southwest 297 342 9,900  Climbing FlightAware
08:17AM 40.0150 -75.3740 242° Southwest 322 371 9,800 -180 Descending FlightAware
08:18AM 39.9980 -75.4160 242° Southwest 329 379 9,800  Level FlightAware
08:18AM 39.9850 -75.4470 241° Southwest 329 379 9,800  Level FlightAware
08:19AM 39.9680 -75.4880 242° Southwest 329 379 9,800  Level FlightAware
08:19AM 39.9510 -75.5290 242° Southwest 328 377 9,800 120 Level FlightAware
08:19AM 39.9370 -75.5630 242° Southwest 328 377 9,900 1,560 Climbing FlightAware
08:20AM 39.9100 -75.6270 241° Southwest 333 383 11,300 1,680 Climbing FlightAware
08:20AM 39.8870 -75.6810 241° Southwest 337 388 11,800 1,260 Climbing FlightAware
08:21AM 39.8580 -75.7520 242° Southwest 345 397 12,800 2,400 Climbing FlightAware
08:22AM 39.8290 -75.8130 238° Southwest 344 396 14,800 2,760 Climbing FlightAware
08:22AM 39.7970 -75.8650 231° Southwest 356 410 15,900 2,220 Climbing FlightAware
08:23AM 39.7570 -75.9280 230° Southwest 366 421 17,400 2,400 Climbing FlightAware
08:23AM 39.7200 -75.9880 231° Southwest 373 429 18,800 2,220 Climbing FlightAware
08:24AM 39.6780 -76.0530 230° Southwest 382 440 20,100 1,980 Climbing FlightAware
08:24AM 39.6430 -76.1080 230° Southwest 391 450 21,100 2,040 Climbing FlightAware
08:25AM 39.6040 -76.1710 231° Southwest 395 455 22,400 1,920 Climbing FlightAware
08:26AM 39.5650 -76.2300 229° Southwest 405 466 23,300 1,800 Climbing FlightAware
08:26AM 39.5200 -76.2990 230° Southwest 413 475 24,500 1,920 Climbing FlightAware
08:27AM 39.4780 -76.3650 231° Southwest 416 479 25,600 1,320 Climbing FlightAware
08:33AM 38.9980 -77.0890 230° Southwest 484 557 33,100 1,200 Climbing FlightAware
08:33AM 38.9840 -77.1050 222° Southwest 485 558 33,200 1,080 Climbing FlightAware
08:33AM 38.9700 -77.1210 222° Southwest 486 559 33,400 1,500 Climbing FlightAware
08:33AM 38.9650 -77.1260 218° Southwest 486 559 33,500 1,500 Climbing FlightAware
08:33AM 38.9490 -77.1430 220° Southwest 486 559 33,700 1,500 Climbing FlightAware
08:33AM 38.9360 -77.1570 220° Southwest 485 558 33,900 1,500 Climbing FlightAware
08:33AM 38.9310 -77.1630 223° Southwest 484 557 34,000 1,500 Climbing FlightAware
08:33AM 38.9140 -77.1810 219° Southwest 484 557 34,200 1,080 Climbing FlightAware
08:34AM 38.9030 -77.1930 220° Southwest 485 558 34,300 960 Climbing FlightAware
08:34AM 38.8950 -77.2020 221° Southwest 484 557 34,400 1,860 Climbing FlightAware
08:34AM 38.8750 -77.2250 222° Southwest 481 554 34,800 1,860 Climbing FlightAware
08:34AM 38.8680 -77.2320 218° Southwest 480 552 34,900 1,500 Climbing FlightAware
08:34AM 38.8540 -77.2470 220° Southwest 478 550 35,100 1,500 Climbing FlightAware
08:34AM 38.8430 -77.2600 223° Southwest 476 548 35,300 1,980 Climbing FlightAware
08:34AM 38.8340 -77.2700 221° Southwest 476 548 35,500 1,500 Climbing FlightAware
08:34AM 38.8230 -77.2810 218° Southwest 476 548 35,600 720 Climbing FlightAware
08:35AM 38.8080 -77.2980 221° Southwest 476 548 35,700 1,080 Climbing FlightAware
08:35AM 38.7930 -77.3140 220° Southwest 478 550 35,900 1,080 Climbing FlightAware
08:35AM 38.7830 -77.3250 221° Southwest 478 550 36,000 960 Climbing FlightAware
08:35AM 38.7720 -77.3380 223° Southwest 479 551 36,100 960 Climbing FlightAware
08:35AM 38.7590 -77.3520 220° Southwest 479 551 36,200 720 Climbing FlightAware
08:35AM 38.7450 -77.3670 220° Southwest 480 552 36,300 960 Climbing FlightAware
08:35AM 38.7390 -77.3730 218° Southwest 478 550 36,400 1,500 Climbing FlightAware
08:35AM 38.7240 -77.3890 220° Southwest 477 549 36,600 1,500 Climbing FlightAware
08:35AM 38.7110 -77.4040 222° Southwest 475 547 36,800 1,500 Climbing FlightAware
08:36AM 38.6970 -77.4190 220° Southwest 473 544 37,000 1,500 Climbing FlightAware
08:36AM 38.6910 -77.4250 218° Southwest 473 544 37,100 1,500 Climbing FlightAware
08:36AM 38.6780 -77.4390 220° Southwest 472 543 37,300 1,020 Climbing FlightAware
08:36AM 38.6640 -77.4550 222° Southwest 472 543 37,400 720 Climbing FlightAware
08:36AM 38.6520 -77.4680 220° Southwest 472 543 37,500 1,080 Climbing FlightAware
08:36AM 38.6450 -77.4750 218° Southwest 471 542 37,600 960 Climbing FlightAware
08:36AM 38.6310 -77.4910 222° Southwest 471 542 37,700 720 Climbing FlightAware
08:36AM 38.6180 -77.5050 220° Southwest 470 541 37,800 1,080 Climbing FlightAware
08:37AM 38.6050 -77.5190 220° Southwest 468 539 38,000 960 Climbing FlightAware
08:37AM 38.5980 -77.5270 222° Southwest 468 539 38,000  Level FlightAware
08:37AM 38.5850 -77.5410 220° Southwest 467 537 38,000  Level FlightAware
08:37AM 38.5720 -77.5550 220° Southwest 466 536 38,000 360 Level FlightAware
08:37AM 38.5580 -77.5690 218° Southwest 465 535 38,100 480 Climbing FlightAware
08:37AM 38.5520 -77.5760 222° Southwest 464 534 38,100  Level FlightAware
08:37AM 38.5390 -77.5910 222° Southwest 463 533 38,100  Level FlightAware
08:37AM 38.5250 -77.6050 218° Southwest 465 535 38,100  Level FlightAware
08:37AM 38.5200 -77.6100 218° Southwest 465 535 38,100  Level FlightAware
08:38AM 38.5080 -77.6240 222° Southwest 465 535 38,100 -420 Level FlightAware
08:38AM 38.4940 -77.6390 220° Southwest 466 536 38,000  Descending FlightAware
08:38AM 38.4820 -77.6520 220° Southwest 465 535 38,100 480 Climbing FlightAware
08:38AM 38.4730 -77.6620 221° Southwest 465 535 38,100  Level FlightAware
08:38AM 38.4600 -77.6760 220° Southwest 466 536 38,100 -360 Level FlightAware
08:38AM 38.4460 -77.6910 220° Southwest 466 536 38,000 -360 Descending FlightAware
08:38AM 38.4340 -77.7040 220° Southwest 466 536 38,000 360 Level FlightAware
08:38AM 38.4210 -77.7180 220° Southwest 466 536 38,100 540 Climbing FlightAware
08:38AM 38.4150 -77.7240 218° Southwest 466 536 38,100  Level FlightAware
08:39AM 38.4010 -77.7390 220° Southwest 466 536 38,100  Level FlightAware
08:39AM 38.3920 -77.7490 221° Southwest 466 536 38,100  Level FlightAware
08:39AM 38.3740 -77.7680 220° Southwest 466 536 38,100  Level FlightAware
08:39AM 38.3670 -77.7750 218° Southwest 466 536 38,100  Level FlightAware
08:39AM 38.3550 -77.7890 222° Southwest 466 536 38,100 -420 Level FlightAware
08:39AM 38.3430 -77.8020 220° Southwest 466 536 38,000 -420 Descending FlightAware
08:39AM 38.3280 -77.8170 218° Southwest 466 536 38,000 480 Level FlightAware
08:39AM 38.3210 -77.8250 222° Southwest 466 536 38,100 480 Climbing FlightAware
08:40AM 38.3100 -77.8370 221° Southwest 466 536 38,100  Level FlightAware
08:40AM 38.2980 -77.8500 220° Southwest 466 536 38,100  Level FlightAware
08:40AM 38.2830 -77.8660 220° Southwest 466 536 38,100  Level FlightAware
08:40AM 38.2760 -77.8730 218° Southwest 466 536 38,100  Level FlightAware
08:40AM 38.2630 -77.8880 222° Southwest 466 536 38,100  Level FlightAware
08:40AM 38.2500 -77.9020 220° Southwest 466 536 38,100  Level FlightAware
08:40AM 38.2380 -77.9140 218° Southwest 466 536 38,100  Level FlightAware
08:40AM 38.2310 -77.9220 222° Southwest 466 536 38,100  Level FlightAware
08:40AM 38.2180 -77.9350 218° Southwest 465 535 38,100  Level FlightAware
08:41AM 38.2040 -77.9510 222° Southwest 466 536 38,100  Level FlightAware
08:41AM 38.1960 -77.9590 218° Southwest 466 536 38,100  Level FlightAware
08:41AM 38.1840 -77.9720 220° Southwest 465 535 38,100  Level FlightAware
08:41AM 38.1690 -77.9870 218° Southwest 466 536 38,100 -420 Level FlightAware
08:41AM 38.1560 -78.0010 220° Southwest 466 536 38,000  Descending FlightAware
08:41AM 38.1520 -78.0060 225° Southwest 466 536 38,100 420 Climbing FlightAware
08:41AM 38.1330 -78.0260 220° Southwest 465 535 38,100  Level FlightAware
08:41AM 38.1220 -78.0380 221° Southwest 466 536 38,100 -420 Level FlightAware
08:42AM 38.1060 -78.0550 220° Southwest 466 536 38,000 -540 Descending FlightAware
08:42AM 38.1010 -78.0600 218° Southwest 466 536 38,000  Level FlightAware
08:42AM 38.0940 -78.0670 218° Southwest 466 536 38,000  Level FlightAware
08:42AM 38.0740 -78.0880 220° Southwest 466 536 38,000  Level FlightAware
08:42AM 38.0620 -78.1010 220° Southwest 466 536 38,000  Level FlightAware
08:42AM 38.0540 -78.1100 222° Southwest 466 536 38,000  Level FlightAware
08:42AM 38.0460 -78.1180 218° Southwest 466 536 38,000 360 Level FlightAware
08:42AM 38.0270 -78.1390 221° Southwest 466 536 38,100 300 Climbing FlightAware
08:42AM 38.0180 -78.1480 218° Southwest 465 535 38,100  Level FlightAware
08:43AM 38.0150 -78.1510 218° Southwest 466 536 38,100  Level FlightAware
08:43AM 37.9980 -78.1680 218° Southwest 466 536 38,100  Level FlightAware
08:43AM 37.9920 -78.1740 218° Southwest 466 536 38,100  Level FlightAware
08:43AM 37.9720 -78.1930 217° Southwest 465 535 38,100  Level FlightAware
08:43AM 37.9170 -78.2450 217° Southwest 466 536 38,100 -120 Level FlightAware
08:44AM 37.8500 -78.3090 217° Southwest 465 535 38,000 -120 Descending FlightAware
08:45AM 37.7910 -78.3650 217° Southwest 466 536 38,000  Level FlightAware
08:45AM 37.7290 -78.4250 217° Southwest 466 536 38,000 60 Level FlightAware
08:46AM 37.6720 -78.4780 216° Southwest 467 537 38,100 60 Climbing FlightAware
08:46AM 37.6060 -78.5400 217° Southwest 466 536 38,100  Level FlightAware
08:47AM 37.5520 -78.5920 217° Southwest 466 536 38,100  Level FlightAware
08:48AM 37.4890 -78.6510 217° Southwest 465 535 38,100  Level FlightAware
08:48AM 37.4290 -78.7070 217° Southwest 463 533 38,100  Level FlightAware
08:49AM 37.3670 -78.7650 217° Southwest 463 533 38,100  Level FlightAware
08:49AM 37.3130 -78.8160 217° Southwest 462 532 38,100 -120 Level FlightAware
08:50AM 37.2410 -78.8830 217° Southwest 461 531 38,000 -120 Descending FlightAware
08:51AM 37.1800 -78.9400 217° Southwest 461 531 38,000  Level FlightAware
08:51AM 37.1110 -79.0040 216° Southwest 461 531 38,000  Level FlightAware
08:52AM 37.0540 -79.0570 217° Southwest 461 531 38,000  Level FlightAware
08:52AM 36.9910 -79.1150 216° Southwest 463 533 38,000 60 Level FlightAware
08:53AM 36.9250 -79.1770 217° Southwest 464 534 38,100 60 Climbing FlightAware
08:54AM 36.8640 -79.2330 216° Southwest 464 534 38,100  Level FlightAware
08:54AM 36.8040 -79.2880 216° Southwest 463 533 38,100  Level FlightAware
08:55AM 36.7510 -79.3360 216° Southwest 462 532 38,100 -120 Level FlightAware
08:55AM 36.6870 -79.3950 216° Southwest 461 531 38,000  Descending FlightAware
08:56AM 36.6230 -79.4530 216° Southwest 460 529 38,100 60 Climbing FlightAware
08:57AM 36.5620 -79.5090 216° Southwest 457 526 38,100 -120 Level FlightAware
08:57AM 36.5100 -79.5570 217° Southwest 456 525 38,000 -120 Descending FlightAware
08:58AM 36.4480 -79.6130 216° Southwest 455 524 38,000  Level FlightAware
08:58AM 36.3890 -79.6670 216° Southwest 455 524 38,000  Level FlightAware
08:59AM 36.3290 -79.7210 216° Southwest 454 522 38,000 60 Level FlightAware
08:59AM 36.2710 -79.7740 216° Southwest 447 514 38,100  Climbing FlightAware
09:00AM 36.2150 -79.8240 216° Southwest 454 522 38,000 -120 Descending FlightAware
09:01AM 36.1530 -79.8800 216° Southwest 453 521 38,000  Level FlightAware
09:01AM 36.0970 -79.9300 216° Southwest 454 522 38,000  Level FlightAware
09:02AM 36.0290 -79.9810 211° Southwest 458 527 38,000 60 Level FlightAware
09:03AM 35.9480 -80.0260 204° Southwest 459 528 38,100 60 Climbing FlightAware
09:03AM 35.8730 -80.0640 202° Southwest 454 522 38,100  Level FlightAware
09:04AM 35.8030 -80.0990 202° Southwest 454 522 38,100  Level FlightAware
09:04AM 35.7430 -80.1290 202° Southwest 455 524 38,100  Level FlightAware
09:05AM 35.6660 -80.1680 202° Southwest 461 531 38,100  Level FlightAware
09:06AM 35.5830 -80.2090 202° Southwest 460 529 38,100  Level FlightAware
09:06AM 35.5130 -80.2440 202° Southwest 459 528 38,100 -120 Level FlightAware
09:07AM 35.4410 -80.2800 202° Southwest 460 529 38,000 -120 Descending FlightAware
09:07AM 35.3740 -80.3140 202° Southwest 461 531 38,000  Level FlightAware
09:08AM 35.3070 -80.3470 202° Southwest 461 531 38,000  Level FlightAware
09:08AM 35.2370 -80.3820 202° Southwest 462 532 38,000  Level FlightAware
09:09AM 35.1650 -80.4180 202° Southwest 463 533 38,000  Level FlightAware
09:10AM 35.1010 -80.4490 202° Southwest 463 533 38,000  Level FlightAware
09:10AM 35.0290 -80.4850 202° Southwest 464 534 38,000 60 Level FlightAware
09:11AM 34.9890 -80.5040 201° Southwest 462 532 38,100  Climbing FlightAware
09:11AM 34.9020 -80.5470 202° Southwest 463 533 38,000  Descending FlightAware
09:12AM 34.8270 -80.5840 202° Southwest 463 533 38,100 60 Climbing FlightAware
09:13AM 34.7550 -80.6190 202° Southwest 464 534 38,100  Level FlightAware
09:13AM 34.6830 -80.6550 202° Southwest 463 533 38,100  Level FlightAware
09:14AM 34.6190 -80.6820 199° South 463 533 38,100  Level FlightAware
09:14AM 34.5430 -80.6980 190° South 462 532 38,100  Level FlightAware
09:15AM 34.4670 -80.7100 187° South 461 531 38,100  Level FlightAware
09:15AM 34.3910 -80.7210 187° South 459 528 38,100  Level FlightAware
09:16AM 34.3220 -80.7320 188° South 458 527 38,100 -120 Level FlightAware
09:17AM 34.2460 -80.7430 187° South 456 525 38,000 -120 Descending FlightAware
09:17AM 34.1730 -80.7550 188° South 454 522 38,000 60 Level FlightAware
09:18AM 34.1050 -80.7650 187° South 452 520 38,100 60 Climbing FlightAware
09:18AM 34.0280 -80.7770 187° South 450 518 38,100  Level FlightAware
09:19AM 33.9530 -80.7880 187° South 447 514 38,100 -120 Level FlightAware
09:19AM 33.8860 -80.7980 187° South 445 512 38,000 -120 Descending FlightAware
09:20AM 33.8150 -80.8090 187° South 444 511 38,000  Level FlightAware
09:21AM 33.7500 -80.8190 187° South 444 511 38,000  Level FlightAware
09:21AM 33.6680 -80.8310 187° South 446 513 38,000  Level FlightAware
09:22AM 33.6050 -80.8410 188° South 447 514 38,000 60 Level FlightAware
09:22AM 33.5280 -80.8520 187° South 448 516 38,100 60 Climbing FlightAware
09:23AM 33.4550 -80.8630 187° South 447 514 38,100  Level FlightAware
09:23AM 33.3940 -80.8720 187° South 445 512 38,100  Level FlightAware
09:24AM 33.3140 -80.8840 187° South 443 510 38,100  Level FlightAware
09:25AM 33.2440 -80.8950 187° South 440 506 38,100 -120 Level FlightAware
09:25AM 33.1690 -80.9060 187° South 438 504 38,000 -120 Descending FlightAware
09:26AM 33.0980 -80.9160 187° South 436 502 38,000  Level FlightAware
09:26AM 33.0300 -80.9260 187° South 435 501 38,000  Level FlightAware
09:27AM 32.9610 -80.9360 187° South 434 499 38,000  Level FlightAware
09:28AM 32.8950 -80.9460 187° South 435 501 38,000  Level FlightAware
09:28AM 32.8230 -80.9570 187° South 436 502 38,000 60 Level FlightAware
09:29AM 32.7500 -80.9670 187° South 436 502 38,100 60 Climbing FlightAware
09:29AM 32.6910 -80.9760 187° South 436 502 38,100  Level FlightAware
09:29AM 32.6770 -80.9780 187° South 436 502 38,100  Level FlightAware
09:33AM 32.2320 -81.0440 187° South 432 497 38,100  Level FlightAware
09:34AM 32.1150 -81.0610 187° South 432 497 38,100  Level FlightAware
09:35AM 32.0170 -81.0750 187° South 432 497 38,100  Level FlightAware
09:36AM 31.9630 -81.0830 187° South 432 497 38,100  Level FlightAware
09:37AM 31.8100 -81.1050 187° South 431 496 38,100  Level FlightAware
09:37AM 31.7540 -81.1130 187° South 430 495 38,100 -120 Level FlightAware
09:38AM 31.6380 -81.1290 187° South 428 493 38,000 -60 Descending FlightAware
09:39AM 31.5410 -81.1430 187° South 428 493 38,000  Level FlightAware
09:40AM 31.4120 -81.1620 187° South 428 493 38,000 60 Level FlightAware
09:41AM 31.3590 -81.1690 186° South 428 493 38,100 60 Climbing FlightAware
09:41AM 31.2500 -81.1710 181° South 432 497 38,100  Level FlightAware
09:42AM 31.1860 -81.1690 178° South 432 497 38,100  Level FlightAware
09:43AM 31.1120 -81.1670 179° South 431 496 38,100  Level FlightAware
09:43AM 31.0390 -81.1650 179° South 430 495 38,100  Level FlightAware
09:44AM 30.9710 -81.1630 179° South 429 494 38,100  Level FlightAware
09:44AM 30.9070 -81.1610 178° South 428 493 38,100 -120 Level FlightAware
09:45AM 30.8350 -81.1590 179° South 428 493 38,000 -1,020 Descending FlightAware
09:46AM 30.7640 -81.1560 178° South 427 491 36,900 -2,340 Descending FlightAware
09:46AM 30.6930 -81.1540 179° South 429 494 35,300 -2,400 Descending FlightAware
09:47AM 30.6270 -81.1520 179° South 436 502 34,200 -1,440 Descending FlightAware
09:47AM 30.5520 -81.1500 179° South 442 509 33,700 -1,320 Descending FlightAware
09:48AM 30.4780 -81.1480 179° South 436 502 32,600 -1,800 Descending FlightAware
09:48AM 30.4110 -81.1460 179° South 440 506 31,600 -1,800 Descending FlightAware
09:49AM 30.3350 -81.1430 178° South 441 507 30,500 -1,680 Descending FlightAware
09:50AM 30.2670 -81.1410 179° South 458 527 29,700 -1,320 Descending FlightAware
09:50AM 30.2000 -81.1390 179° South 460 529 29,100 -1,080 Descending FlightAware
09:51AM 30.1240 -81.1370 179° South 452 520 28,500 -1,020 Descending FlightAware
09:51AM 30.0610 -81.1350 178° South 447 514 28,000 -1,020 Descending FlightAware
09:52AM 29.9850 -81.1210 171° South 450 518 27,400 -1,020 Descending FlightAware
09:52AM 29.9180 -81.0910 159° South 448 516 26,800 -1,020 Descending FlightAware
09:53AM 29.8530 -81.0630 160° South 446 513 26,300 -1,140 Descending FlightAware
09:53AM 29.8000 -81.0400 159° South 439 505 25,700 -1,620 Descending FlightAware
09:54AM 29.7320 -81.0110 160° South 430 495 24,600 -1,920 Descending FlightAware
09:55AM 29.6630 -80.9880 164° South 419 482 23,400 -2,040 Descending FlightAware
09:55AM 29.6410 -80.9880 180° South 415 478 23,000 -2,100 Descending FlightAware
09:55AM 29.5750 -80.9980 188° South 407 468 21,800 -2,040 Descending FlightAware
09:56AM 29.5090 -81.0090 188° South 402 463 20,600 -2,040 Descending FlightAware
09:57AM 29.4480 -81.0190 188° South 398 458 19,500 -2,040 Descending FlightAware
09:57AM 29.3840 -81.0290 188° South 395 455 18,300 -2,100 Descending FlightAware
09:58AM 29.3240 -81.0390 188° South 389 448 17,100 -1,980 Descending FlightAware
09:58AM 29.2560 -81.0500 188° South 379 436 16,000 -1,800 Descending FlightAware
09:59AM 29.2010 -81.0590 188° South 375 432 15,000 -1,800 Descending FlightAware
10:00AM 29.1340 -81.0700 188° South 368 423 13,900 -1,740 Descending FlightAware
10:00AM 29.0760 -81.0800 189° South 366 421 12,900 -1,680 Descending FlightAware
10:01AM 29.0220 -81.0880 187° South 363 418 12,000 -900 Descending FlightAware
10:01AM 28.9620 -81.0810 174° South 357 411 11,900 -120 Descending FlightAware
10:02AM 28.8970 -81.0840 182° South 310 357 11,900 -360 Level FlightAware
10:03AM 28.8500 -81.0980 195° South 286 329 11,500 -660 Descending FlightAware
10:03AM 28.8160 -81.0930 173° South 271 312 11,200 -780 Descending FlightAware
10:04AM 28.7780 -81.0730 155° Southeast 255 293 10,700 -1,140 Descending FlightAware
10:04AM 28.7340 -81.0500 155° Southeast 255 293 9,800 -1,260 Descending FlightAware
10:05AM 28.7100 -81.0370 155° Southeast 252 290 9,400 -960 Descending FlightAware
10:05AM 28.6800 -81.0210 155° Southeast 248 285 9,000 -780 Descending FlightAware
10:05AM 28.6660 -81.0180 169° South 249 287 8,900 -180 Descending FlightAware
10:06AM 28.6410 -81.0270 198° South 251 289 8,900  Level FlightAware
10:06AM 28.6320 -81.0400 232° Southwest 246 283 8,900  Level FlightAware
10:06AM 28.6240 -81.0540 237° Southwest 246 283 8,900  Level FlightAware
10:06AM 28.6100 -81.0740 231° Southwest 245 282 8,900  Level FlightAware
10:07AM 28.5940 -81.1000 235° Southwest 247 284 8,900  Level FlightAware
10:07AM 28.5840 -81.1160 235° Southwest 246 283 8,900  Level FlightAware
10:07AM 28.5710 -81.1370 235° Southwest 246 283 8,900 -180 Level FlightAware
10:08AM 28.5580 -81.1580 235° Southwest 244 281 8,800 -780 Descending FlightAware
10:08AM 28.5420 -81.1790 229° Southwest 244 281 8,400 -1,200 Descending FlightAware
10:08AM 28.5350 -81.1850 217° Southwest 245 282 8,200 -1,440 Descending FlightAware
10:08AM 28.5290 -81.1870 196° South 245 282 8,100 -1,680 Descending FlightAware
10:08AM 28.5220 -81.1880 187° South 247 284 7,900 -1,500 Descending FlightAware
10:09AM 28.4880 -81.1870 179° South 247 284 7,200 -1,380 Descending FlightAware
10:09AM 28.4700 -81.1880 183° South 246 283 6,900 -1,200 Descending FlightAware
10:10AM 28.4470 -81.1870 178° South 247 284 6,500 -1,080 Descending FlightAware
10:10AM 28.4280 -81.1870 180° South 244 281 6,200 -1,140 Descending FlightAware
10:10AM 28.3940 -81.1870 180° South 240 276 5,600 -1,200 Descending FlightAware
10:11AM 28.3520 -81.1880 181° South 232 267 4,900 -1,080 Descending FlightAware
10:11AM 28.3380 -81.1880 180° South 230 265 4,700 -780 Descending FlightAware
10:12AM 28.3120 -81.1870 178° South 215 247 4,400 -720 Descending FlightAware
10:12AM 28.2940 -81.1870 180° South 213 245 4,200 -660 Descending FlightAware
10:12AM 28.2760 -81.1870 180° South 192 221 4,000 -900 Descending FlightAware
10:13AM 28.2420 -81.1870 180° South 189 217 3,300 -600 Descending FlightAware
10:13AM 28.2200 -81.1870 180° South 189 217 3,300 -1,020 Level FlightAware
10:14AM 28.2180 -81.2130 265° West 189 217 2,600 -1,560 Descending FlightAware
10:14AM 28.2170 -81.2440 268° West 192 221 2,300 -420 Descending FlightAware
10:15AM 28.2160 -81.2740 268° West 192 221 2,200 -480 Descending FlightAware
10:15AM 28.2390 -81.2790 349° North 178 205 1,900 -420 Descending FlightAware
10:15AM 28.2570 -81.2830 349° North 178 205 1,900 -300 Level FlightAware
10:16AM 28.2940 -81.2810 North 173 199 1,600 -300 Descending FlightAware
10:17AM 28.3220 -81.2810 360° North 155 178 1,500 -240 Descending FlightAware
10:17AM 28.3440 -81.2820 358° North 171 197 1,400 -480 Descending FlightAware
10:17AM 28.3560 -81.2820 360° North 153 176 1,200 -720 Descending FlightAware
10:18AM 28.3680 -81.2820 360° North 141 162 1,000 -660 Descending FlightAware
10:18AM 28.3860 -81.2820 360° North 129 148 700 -420 Descending FlightAware
10:19AM 28.4000 -81.2820 360° North 129 148 600 -240 Descending FlightAware
10:26AM 28.4167 -81.3000 336° Northwest  Level FlightAware Approximate